Time;durP1;ratioP1;P1;durP2;ratioP2;P2;SDS_P1;SDS_P2;PMS_P1;PMS_P2;Temp;Humidity;BMP_temperature;BMP_pressure;BME280_temperature;BME280_humidity;BME280_pressure;Samples;Min_cycle;Max_cycle;Signal;HPM_P1;HPM_P2
2021/10/08 00:01:27;;;;;;;22.52;4.90;;;9.30;99.90;;;;;;5016993;28;20372;-76
2021/10/08 00:03:53;;;;;;;23.52;4.32;;;9.20;99.90;;;;;;5013359;28;20091;-75
2021/10/08 00:06:19;;;;;;;25.92;5.32;;;9.20;99.90;;;;;;5013232;28;20112;-76
2021/10/08 00:08:45;;;;;;;25.73;4.95;;;9.30;99.90;;;;;;5014716;28;20500;-76
2021/10/08 00:11:11;;;;;;;21.88;4.72;;;9.30;99.90;;;;;;5018931;28;20025;-80
2021/10/08 00:13:38;;;;;;;31.08;4.20;;;9.30;99.90;;;;;;5020144;28;20018;-80
2021/10/08 00:16:05;;;;;;;17.92;4.55;;;9.30;99.90;;;;;;5014282;28;20034;-78
2021/10/08 00:18:32;;;;;;;19.83;5.20;;;9.20;99.90;;;;;;5013345;28;20026;-78
2021/10/08 00:20:59;;;;;;;11.88;4.70;;;9.20;99.90;;;;;;5014885;28;20049;-78
2021/10/08 00:23:25;;;;;;;25.08;4.70;;;9.20;99.90;;;;;;5014742;28;20026;-78
2021/10/08 00:25:51;;;;;;;26.08;4.60;;;9.20;99.90;;;;;;5017164;28;20455;-76
2021/10/08 00:28:16;;;;;;;21.25;4.00;;;9.20;99.90;;;;;;5014320;28;20018;-76
2021/10/08 00:30:42;;;;;;;26.42;4.68;;;9.20;99.90;;;;;;5014549;28;20539;-76
2021/10/08 00:33:07;;;;;;;17.55;4.68;;;9.20;99.90;;;;;;5014564;28;20049;-76
2021/10/08 00:35:35;;;;;;;20.90;5.15;;;9.10;99.90;;;;;;5013011;28;20394;-76
2021/10/08 00:38:04;;;;;;;24.77;4.43;;;9.20;99.90;;;;;;5013853;28;20057;-78
2021/10/08 00:40:41;;;;;;;22.08;4.78;;;9.10;99.90;;;;;;5012939;28;20442;-78
2021/10/08 00:43:07;;;;;;;27.85;4.07;;;9.10;99.90;;;;;;5014185;28;20105;-78
2021/10/08 00:45:33;;;;;;;31.52;4.43;;;9.10;99.90;;;;;;5014059;28;20030;-78
2021/10/08 00:48:08;;;;;;;22.08;4.43;;;9.10;99.90;;;;;;5014371;28;20018;-78
2021/10/08 00:50:37;;;;;;;50.15;4.53;;;9.00;99.90;;;;;;5012740;28;20053;-78
2021/10/08 00:53:03;;;;;;;;;;;9.00;99.90;;;;;;5014706;28;20026;-78
2021/10/08 00:55:29;;;;;;;15.00;3.08;;;8.90;99.90;;;;;;5013957;28;19905;-78
2021/10/08 00:57:55;;;;;;;27.08;4.13;;;8.90;99.90;;;;;;5013923;28;20141;-78
2021/10/08 01:00:24;;;;;;;23.58;3.88;;;8.80;99.90;;;;;;5014322;28;20463;-78
2021/10/08 01:02:49;;;;;;;18.70;4.47;;;8.80;99.90;;;;;;5013171;28;20048;-77
2021/10/08 01:05:15;;;;;;;34.10;3.55;;;8.80;99.90;;;;;;5015485;28;20026;-78
2021/10/08 01:07:41;;;;;;;32.22;3.17;;;8.70;99.90;;;;;;5016776;28;20026;-79
2021/10/08 01:10:10;;;;;;;24.65;4.35;;;8.70;99.90;;;;;;5019753;28;20375;-79
2021/10/08 01:12:38;;;;;;;16.00;3.60;;;11.00;99.90;;;;;;5018524;28;20026;-79
2021/10/08 01:15:04;;;;;;;31.17;4.50;;;8.60;99.90;;;;;;5017649;28;20022;-78
2021/10/08 01:17:29;;;;;;;24.75;4.82;;;8.60;99.90;;;;;;5013060;28;20037;-76
2021/10/08 01:20:08;;;;;;;18.70;4.03;;;8.60;99.90;;;;;;5013823;28;20022;-75
2021/10/08 01:22:34;;;;;;;;;;;8.60;99.90;;;;;;5022706;28;20030;-75
2021/10/08 01:25:00;;;;;;;11.65;3.10;;;8.60;99.90;;;;;;5033234;28;19912;-77
2021/10/08 01:27:25;;;;;;;17.33;3.47;;;8.70;99.90;;;;;;5033716;28;20079;-78
2021/10/08 01:29:55;;;;;;;15.48;3.90;;;8.60;99.90;;;;;;5032776;28;20025;-78
2021/10/08 01:32:22;;;;;;;19.70;4.10;;;8.60;99.90;;;;;;5033200;28;20026;-78
2021/10/08 01:34:48;;;;;;;35.97;3.80;;;8.60;99.90;;;;;;5033206;28;20029;-77
2021/10/08 01:37:14;;;;;;;19.63;4.43;;;8.60;99.90;;;;;;5033224;28;20025;-77
2021/10/08 01:39:40;;;;;;;24.00;3.88;;;8.60;99.90;;;;;;5033366;28;20111;-77
2021/10/08 01:42:06;;;;;;;13.55;3.55;;;8.50;99.90;;;;;;5033019;28;20025;-77
2021/10/08 01:44:32;;;;;;;24.75;3.85;;;8.50;99.90;;;;;;5032167;28;20056;-77
2021/10/08 01:46:57;;;;;;;15.05;3.83;;;8.60;99.90;;;;;;5033516;28;20064;-77
2021/10/08 01:49:23;;;;;;;26.50;3.97;;;8.50;99.90;;;;;;5034029;28;20017;-77
2021/10/08 01:51:48;;;;;;;36.80;4.20;;;8.50;99.90;;;;;;5036053;28;20022;-78
2021/10/08 01:54:14;;;;;;;30.85;3.63;;;8.50;99.90;;;;;;5037000;28;20022;-77
2021/10/08 01:56:44;;;;;;;31.75;4.35;;;8.50;99.90;;;;;;5035746;28;20086;-77
2021/10/08 01:59:10;;;;;;;20.02;3.70;;;8.40;99.90;;;;;;5037365;28;20022;-77
2021/10/08 02:01:35;;;;;;;13.48;3.70;;;8.40;99.90;;;;;;5035556;28;20090;-76
2021/10/08 02:04:01;;;;;;;12.40;3.45;;;8.40;99.90;;;;;;5036955;28;20033;-76
2021/10/08 02:06:27;;;;;;;20.80;3.72;;;8.40;99.90;;;;;;5035282;28;20037;-77
2021/10/08 02:08:52;;;;;;;20.30;4.05;;;8.40;99.90;;;;;;5037239;28;20383;-77
2021/10/08 02:11:18;;;;;;;21.10;3.88;;;8.40;99.90;;;;;;5035262;28;20088;-77
2021/10/08 02:13:43;;;;;;;17.83;3.50;;;8.30;99.90;;;;;;5036831;28;20110;-76
2021/10/08 02:16:09;;;;;;;31.20;4.43;;;8.30;99.90;;;;;;5036550;28;20113;-77
2021/10/08 02:18:35;;;;;;;20.85;4.05;;;8.30;99.90;;;;;;5036962;28;20104;-76
2021/10/08 02:21:01;;;;;;;20.48;4.32;;;8.30;99.90;;;;;;5036407;28;20030;-76
2021/10/08 02:23:26;;;;;;;19.02;3.47;;;8.30;99.90;;;;;;5036251;28;20037;-77
2021/10/08 02:25:52;;;;;;;28.13;3.90;;;8.30;99.90;;;;;;5035160;28;20029;-77
2021/10/08 02:28:18;;;;;;;18.27;4.25;;;8.30;99.90;;;;;;5036451;28;20026;-77
2021/10/08 02:30:43;;;;;;;26.02;3.47;;;8.20;99.90;;;;;;5036362;28;20026;-77
2021/10/08 02:33:09;;;;;;;17.40;3.53;;;8.30;99.90;;;;;;5036576;28;20058;-77
2021/10/08 02:35:34;;;;;;;15.75;4.63;;;8.30;99.90;;;;;;5036291;28;20482;-77
2021/10/08 02:38:00;;;;;;;16.27;4.30;;;8.20;99.90;;;;;;5036270;28;20482;-77
2021/10/08 02:40:25;;;;;;;28.88;3.95;;;8.20;99.90;;;;;;5036379;28;20025;-77
2021/10/08 02:42:51;;;;;;;26.80;3.83;;;8.20;99.90;;;;;;5036384;28;20021;-77
2021/10/08 02:45:16;;;;;;;34.15;3.70;;;8.20;99.90;;;;;;5036142;28;20031;-78
2021/10/08 02:47:42;;;;;;;22.05;3.20;;;8.20;99.90;;;;;;5034809;28;20386;-77
2021/10/08 02:50:08;;;;;;;20.10;3.47;;;8.20;99.90;;;;;;5036079;28;20036;-76
2021/10/08 02:52:34;;;;;;;28.42;2.92;;;8.10;99.90;;;;;;5024954;28;20018;-76
2021/10/08 02:55:00;;;;;;;15.35;2.97;;;8.10;99.90;;;;;;5016123;28;20022;-75
2021/10/08 02:57:25;;;;;;;28.92;3.25;;;8.10;99.90;;;;;;5015687;28;20033;-75
2021/10/08 02:59:51;;;;;;;30.00;3.05;;;8.00;99.90;;;;;;5016184;28;20022;-77
2021/10/08 03:02:18;;;;;;;16.92;4.00;;;8.00;99.90;;;;;;5014282;28;20021;-77
2021/10/08 03:04:43;;;;;;;24.25;3.88;;;8.00;99.90;;;;;;5014707;28;20575;-77
2021/10/08 03:07:09;;;;;;;10.65;2.92;;;8.00;99.90;;;;;;5014167;28;20101;-78
2021/10/08 03:09:36;;;;;;;32.63;3.33;;;8.00;99.90;;;;;;5015676;28;20018;-77
2021/10/08 03:12:01;;;;;;;27.23;3.53;;;8.00;99.90;;;;;;5015395;28;20030;-78
2021/10/08 03:14:29;;;;;;;17.75;3.15;;;8.00;99.90;;;;;;5014743;28;20025;-76
2021/10/08 03:16:55;;;;;;;13.10;2.92;;;7.90;99.90;;;;;;5014199;28;20022;-78
2021/10/08 03:19:20;;;;;;;14.10;3.60;;;7.90;99.90;;;;;;5015841;28;20026;-78
2021/10/08 03:21:46;;;;;;;30.80;4.05;;;7.90;99.90;;;;;;5015491;28;20387;-78
2021/10/08 03:24:11;;;;;;;22.65;3.00;;;7.80;99.90;;;;;;5015529;28;20033;-78
2021/10/08 03:26:37;;;;;;;17.63;3.42;;;7.80;99.90;;;;;;5013928;28;20037;-78
2021/10/08 03:29:03;;;;;;;13.32;2.95;;;7.80;99.90;;;;;;5015636;28;20026;-78
2021/10/08 03:31:29;;;;;;;14.13;3.22;;;7.80;99.90;;;;;;5013996;28;20507;-78
2021/10/08 03:33:55;;;;;;;24.63;3.33;;;7.80;99.90;;;;;;5016012;28;20026;-78
2021/10/08 03:36:27;;;;;;;17.23;3.63;;;7.80;99.90;;;;;;5013914;28;20037;-77
2021/10/08 03:38:52;;;;;;;14.88;3.30;;;7.80;99.90;;;;;;5015366;28;20045;-77
2021/10/08 03:41:19;;;;;;;13.15;3.83;;;7.80;99.90;;;;;;5014104;28;20506;-77
2021/10/08 03:43:46;;;;;;;15.98;3.38;;;7.80;99.90;;;;;;5015286;28;20030;-78
2021/10/08 03:46:14;;;;;;;23.67;3.92;;;7.80;99.90;;;;;;5015550;28;20029;-77
2021/10/08 03:51:27;;;;;;;18.77;3.70;;;7.80;99.90;;;;;;5016099;28;20064;-77
2021/10/08 03:53:53;;;;;;;22.35;3.25;;;7.80;99.90;;;;;;5014158;28;20024;-78
2021/10/08 03:56:18;;;;;;;10.48;3.20;;;7.70;99.90;;;;;;5015078;28;20029;-75
2021/10/08 03:58:44;;;;;;;24.42;3.10;;;7.80;99.90;;;;;;5014932;28;20113;-75
2021/10/08 04:01:10;;;;;;;12.13;3.13;;;7.70;99.90;;;;;;5013519;28;20065;-75
2021/10/08 04:03:35;;;;;;;11.57;3.17;;;7.70;99.90;;;;;;5013422;28;20092;-74
2021/10/08 04:06:01;;;;;;;12.60;3.78;;;7.80;99.90;;;;;;5013302;28;20136;-75
2021/10/08 04:08:27;;;;;;;30.83;3.63;;;7.80;99.90;;;;;;5013611;28;20487;-74
2021/10/08 04:10:53;;;;;;;7.75;3.22;;;7.70;99.90;;;;;;5014714;28;20026;-75
2021/10/08 04:13:18;;;;;;;27.63;3.38;;;7.70;99.90;;;;;;5017326;28;20028;-79
2021/10/08 04:15:44;;;;;;;36.38;3.17;;;7.70;99.90;;;;;;5018357;28;20022;-79
2021/10/08 04:18:11;;;;;;;26.33;2.95;;;7.70;99.90;;;;;;5017654;28;20085;-80
2021/10/08 04:20:38;;;;;;;36.70;3.05;;;7.60;99.90;;;;;;5018878;28;20022;-80
2021/10/08 04:23:03;;;;;;;15.52;3.67;;;7.60;99.90;;;;;;5015703;28;20037;-79
2021/10/08 04:25:29;;;;;;;21.13;2.97;;;7.70;99.90;;;;;;5015076;28;20026;-78
2021/10/08 04:27:55;;;;;;;14.55;3.28;;;7.60;99.90;;;;;;5014133;28;20111;-79
2021/10/08 04:30:21;;;;;;;14.68;2.97;;;7.60;99.90;;;;;;5018497;28;20018;-80
2021/10/08 04:32:47;;;;;;;27.38;3.60;;;7.60;99.90;;;;;;5019614;28;20033;-79
2021/10/08 04:35:13;;;;;;;15.32;3.03;;;7.60;99.90;;;;;;5016854;28;20498;-79
2021/10/08 04:37:39;;;;;;;11.07;2.67;;;7.70;99.90;;;;;;5020811;28;20045;-80
2021/10/08 04:40:06;;;;;;;23.00;3.22;;;7.70;99.90;;;;;;5018895;28;20022;-79
2021/10/08 04:42:32;;;;;;;13.90;2.60;;;7.60;99.90;;;;;;5020678;28;20029;-79
2021/10/08 04:44:59;;;;;;;22.65;2.75;;;7.60;99.90;;;;;;5016596;28;20026;-78
2021/10/08 04:47:24;;;;;;;19.92;2.97;;;7.60;99.90;;;;;;5014433;28;20041;-79
2021/10/08 04:49:50;;;;;;;19.20;2.10;;;7.50;99.90;;;;;;5014694;28;20017;-79
2021/10/08 04:52:16;;;;;;;24.42;2.83;;;7.50;99.90;;;;;;5013385;28;20111;-77
2021/10/08 04:54:42;;;;;;;19.60;2.03;;;7.50;99.90;;;;;;5014040;28;20018;-77
2021/10/08 04:57:07;;;;;;;10.85;2.25;;;7.40;99.90;;;;;;5013885;28;20022;-77
2021/10/08 04:59:34;;;;;;;12.32;1.90;;;7.40;99.90;;;;;;5013802;28;20395;-78
2021/10/08 05:02:00;;;;;;;9.68;1.90;;;7.30;99.90;;;;;;5012494;28;20551;-78
2021/10/08 05:04:25;;;;;;;9.10;1.73;;;7.30;99.90;;;;;;5013940;28;20033;-78
2021/10/08 05:06:51;;;;;;;5.63;2.20;;;7.20;99.90;;;;;;5013666;28;20483;-78
2021/10/08 05:09:17;;;;;;;9.07;2.35;;;7.20;99.90;;;;;;5014078;28;20029;-78
2021/10/08 05:11:42;;;;;;;13.00;2.00;;;7.10;99.90;;;;;;5012665;28;20024;-77
2021/10/08 05:14:10;;;;;;;4.72;1.85;;;7.10;99.90;;;;;;5013846;28;20097;-77
2021/10/08 05:16:37;;;;;;;7.80;1.73;;;7.10;99.90;;;;;;5012856;28;20049;-77
2021/10/08 05:19:03;;;;;;;5.10;2.50;;;7.00;99.90;;;;;;5012688;28;20265;-76
2021/10/08 05:21:32;;;;;;;6.53;1.52;;;7.00;99.90;;;;;;5014035;28;20088;-78
2021/10/08 05:23:58;;;;;;;8.07;1.95;;;7.00;99.90;;;;;;5013909;28;20022;-78
2021/10/08 05:26:23;;;;;;;8.90;1.88;;;7.00;99.90;;;;;;5012333;28;20079;-77
2021/10/08 05:28:52;;;;;;;5.35;1.67;;;6.90;99.90;;;;;;5012274;28;20425;-77
2021/10/08 05:31:18;;;;;;;16.15;1.90;;;6.90;99.90;;;;;;5013696;28;20199;-78
2021/10/08 05:33:44;;;;;;;5.72;1.70;;;6.90;99.90;;;;;;5013594;28;20056;-77
2021/10/08 05:36:10;;;;;;;9.75;1.80;;;6.90;99.90;;;;;;5013699;28;20372;-77
2021/10/08 05:38:36;;;;;;;7.50;1.65;;;6.80;99.90;;;;;;5012605;28;20026;-78
2021/10/08 05:41:03;;;;;;;8.88;2.05;;;6.80;99.90;;;;;;5020249;28;20073;-79
2021/10/08 05:43:28;;;;;;;6.70;1.52;;;6.80;99.90;;;;;;5028355;28;20030;-79
2021/10/08 05:45:54;;;;;;;9.95;1.70;;;6.80;99.90;;;;;;5028193;28;20086;-78
2021/10/08 05:48:23;;;;;;;4.85;1.73;;;6.70;99.90;;;;;;5026957;28;20091;-77
2021/10/08 05:50:49;;;;;;;11.10;1.67;;;8.20;99.90;;;;;;5027184;28;20030;-78
2021/10/08 05:53:14;;;;;;;13.02;2.47;;;6.60;99.90;;;;;;5023601;28;20054;-79
2021/10/08 05:55:40;;;;;;;8.70;1.80;;;6.60;99.90;;;;;;5018721;28;20454;-77
2021/10/08 05:58:06;;;;;;;11.73;1.65;;;6.60;99.90;;;;;;5018333;28;20021;-78
2021/10/08 06:00:34;;;;;;;6.97;2.05;;;6.60;99.90;;;;;;5017785;28;20037;-79
2021/10/08 06:03:02;;;;;;;4.10;1.77;;;6.60;99.90;;;;;;5018500;28;20109;-82
2021/10/08 06:05:28;;;;;;;4.20;1.92;;;6.60;99.90;;;;;;5013742;28;20033;-83
2021/10/08 06:07:54;;;;;;;3.22;1.60;;;6.50;99.90;;;;;;5013435;28;20505;-83
2021/10/08 06:10:20;;;;;;;4.38;1.80;;;6.50;99.90;;;;;;5013387;28;20018;-81
2021/10/08 06:12:45;;;;;;;4.25;1.60;;;7.90;99.90;;;;;;5012369;28;20025;-80
2021/10/08 06:15:11;;;;;;;4.72;1.63;;;6.50;99.90;;;;;;5014485;28;20522;-79
2021/10/08 06:17:36;;;;;;;5.00;1.50;;;6.40;99.90;;;;;;5015005;28;20022;-80
2021/10/08 06:20:03;;;;;;;4.18;2.10;;;6.50;99.90;;;;;;5014660;28;20073;-80
2021/10/08 06:22:35;;;;;;;4.72;1.40;;;6.50;99.90;;;;;;5012956;28;20037;-79
2021/10/08 06:25:01;;;;;;;2.83;1.63;;;6.50;99.90;;;;;;5013474;28;20041;-80
2021/10/08 06:27:27;;;;;;;4.03;1.48;;;6.50;99.90;;;;;;5014657;28;20475;-80
2021/10/08 06:29:52;;;;;;;3.58;1.80;;;6.50;99.90;;;;;;5013630;28;20080;-80
2021/10/08 06:32:18;;;;;;;5.53;1.50;;;6.50;99.90;;;;;;5013883;28;20037;-80
2021/10/08 06:34:43;;;;;;;3.67;1.80;;;6.60;99.90;;;;;;5015160;28;20021;-79
2021/10/08 06:37:09;;;;;;;8.13;1.65;;;6.60;99.90;;;;;;5017510;28;20026;-79
2021/10/08 06:39:34;;;;;;;8.60;1.17;;;6.60;99.90;;;;;;5012482;28;20033;-79
2021/10/08 06:42:00;;;;;;;4.85;1.55;;;6.60;99.90;;;;;;5016578;28;20113;-79
2021/10/08 06:44:25;;;;;;;5.28;1.70;;;6.70;99.90;;;;;;5016966;28;20141;-78
2021/10/08 06:46:51;;;;;;;4.22;1.63;;;6.70;99.90;;;;;;5016272;28;20558;-78
2021/10/08 06:49:16;;;;;;;4.18;1.50;;;6.70;99.90;;;;;;5014585;28;20026;-78
2021/10/08 06:51:42;;;;;;;5.32;1.50;;;6.80;99.90;;;;;;5016583;28;20487;-80
2021/10/08 06:54:08;;;;;;;3.03;1.50;;;6.80;99.90;;;;;;5016954;28;20026;-80
2021/10/08 06:56:33;;;;;;;5.72;1.70;;;6.90;99.90;;;;;;5015356;28;20014;-79
2021/10/08 06:58:59;;;;;;;7.40;2.00;;;6.90;99.90;;;;;;5016292;28;20053;-78
2021/10/08 07:01:24;;;;;;;5.30;1.60;;;7.00;99.90;;;;;;5014549;28;20387;-78
2021/10/08 07:03:50;;;;;;;6.53;2.03;;;7.00;99.90;;;;;;5016156;28;20022;-78
2021/10/08 07:06:15;;;;;;;7.18;2.15;;;7.00;99.90;;;;;;5015568;28;20030;-78
2021/10/08 07:08:41;;;;;;;5.28;1.70;;;7.10;99.90;;;;;;5016169;28;20028;-78
2021/10/08 07:11:07;;;;;;;4.50;2.03;;;7.10;99.90;;;;;;5016186;28;20080;-79
2021/10/08 07:13:33;;;;;;;5.40;2.40;;;7.10;99.90;;;;;;5015577;28;20076;-78
2021/10/08 07:15:59;;;;;;;5.93;2.20;;;7.10;99.90;;;;;;5017895;28;20510;-78
2021/10/08 07:18:33;;;;;;;4.78;2.55;;;7.20;99.90;;;;;;5015666;28;20045;-78
2021/10/08 07:21:00;;;;;;;6.07;2.63;;;7.20;99.90;;;;;;5014605;28;20418;-77
2021/10/08 07:23:25;;;;;;;9.25;3.35;;;7.30;99.90;;;;;;5014126;28;20026;-75
2021/10/08 07:25:51;;;;;;;7.32;2.88;;;7.30;99.90;;;;;;5015430;28;20052;-78
2021/10/08 07:28:17;;;;;;;6.63;2.92;;;7.40;99.90;;;;;;5015432;28;20029;-78
2021/10/08 07:30:43;;;;;;;8.77;3.17;;;7.40;99.90;;;;;;5015369;28;20014;-78
2021/10/08 07:33:09;;;;;;;9.52;3.50;;;7.50;99.90;;;;;;5014670;28;20034;-78
2021/10/08 07:35:34;;;;;;;9.35;3.60;;;7.50;99.90;;;;;;5015087;28;20026;-75
2021/10/08 07:38:00;;;;;;;8.35;3.47;;;7.60;99.90;;;;;;5013704;28;20022;-76
2021/10/08 07:40:27;;;;;;;10.18;3.50;;;7.70;99.90;;;;;;5015004;28;20022;-78
2021/10/08 07:42:52;;;;;;;8.55;3.13;;;7.80;99.90;;;;;;5014848;28;20026;-78
2021/10/08 07:45:18;;;;;;;9.32;3.70;;;7.90;99.90;;;;;;5014483;28;20491;-76
2021/10/08 07:47:44;;;;;;;10.60;4.72;;;8.00;99.90;;;;;;5014061;28;20061;-76
2021/10/08 07:50:11;;;;;;;9.68;3.72;;;8.10;99.90;;;;;;5014381;28;20543;-76
2021/10/08 07:52:37;;;;;;;11.55;4.18;;;8.20;99.90;;;;;;5013547;28;20060;-76
2021/10/08 07:55:05;;;;;;;10.00;4.30;;;8.30;99.90;;;;;;5014642;28;20037;-76
2021/10/08 07:57:31;;;;;;;15.05;5.95;;;8.40;99.90;;;;;;5013869;28;20037;-76
2021/10/08 07:59:56;;;;;;;12.05;4.32;;;8.60;99.90;;;;;;5014928;28;20034;-76
2021/10/08 08:02:23;;;;;;;11.77;5.13;;;8.60;99.90;;;;;;5014710;28;20105;-76
2021/10/08 08:04:49;;;;;;;15.20;6.57;;;8.70;99.90;;;;;;5013536;28;20022;-76
2021/10/08 08:07:14;;;;;;;14.80;5.80;;;8.80;99.90;;;;;;5014338;28;20030;-76
2021/10/08 08:09:40;;;;;;;11.80;4.85;;;8.90;99.90;;;;;;5014533;28;20051;-76
2021/10/08 08:12:08;;;;;;;15.15;5.47;;;9.00;99.90;;;;;;5013377;28;20050;-76
2021/10/08 08:14:33;;;;;;;16.80;6.63;;;9.10;99.90;;;;;;5014153;28;20026;-76
2021/10/08 08:16:59;;;;;;;14.52;5.68;;;9.30;99.90;;;;;;5014255;28;20071;-76
2021/10/08 08:19:24;;;;;;;16.70;6.28;;;9.40;99.90;;;;;;5013178;28;20095;-76
2021/10/08 08:21:50;;;;;;;18.00;7.25;;;9.50;99.90;;;;;;5012855;28;20030;-76
2021/10/08 08:24:16;;;;;;;16.48;6.10;;;9.60;99.90;;;;;;5014396;28;20022;-76
2021/10/08 08:26:41;;;;;;;18.73;7.30;;;9.80;99.90;;;;;;5012726;28;20128;-76
2021/10/08 08:29:07;;;;;;;17.23;6.30;;;9.90;99.90;;;;;;5014603;28;20125;-76
2021/10/08 08:31:36;;;;;;;14.55;6.38;;;10.10;99.90;;;;;;5012866;28;20026;-76
2021/10/08 08:34:01;;;;;;;18.92;6.75;;;10.20;99.90;;;;;;5013041;28;20072;-76
2021/10/08 08:36:27;;;;;;;20.05;6.88;;;10.40;99.90;;;;;;5013931;28;20030;-76
2021/10/08 08:38:53;;;;;;;15.55;7.22;;;10.60;99.90;;;;;;5014403;28;20018;-75
2021/10/08 08:41:18;;;;;;;18.00;7.53;;;10.70;99.90;;;;;;5013105;28;20029;-75
2021/10/08 08:43:45;;;;;;;14.77;6.55;;;10.80;99.90;;;;;;5014370;28;20028;-75
2021/10/08 08:46:10;;;;;;;20.23;8.00;;;10.90;99.90;;;;;;5013001;28;20022;-76
2021/10/08 08:48:36;;;;;;;16.15;6.93;;;11.00;99.90;;;;;;5013169;28;20030;-76
2021/10/08 08:51:02;;;;;;;17.88;6.57;;;11.10;99.90;;;;;;5014020;28;20395;-75
2021/10/08 08:53:28;;;;;;;15.93;7.18;;;11.90;99.90;;;;;;5014734;28;20028;-75
2021/10/08 08:55:53;;;;;;;16.52;7.63;;;11.40;99.90;;;;;;5014407;28;20119;-75
2021/10/08 08:58:19;;;;;;;20.73;7.72;;;11.60;99.90;;;;;;5014305;28;20044;-75
2021/10/08 09:00:55;;;;;;;20.05;8.35;;;11.70;99.90;;;;;;5012656;28;20113;-75
2021/10/08 09:03:21;;;;;;;20.55;8.13;;;11.80;99.90;;;;;;5012785;28;20026;-75
2021/10/08 09:05:47;;;;;;;22.83;7.75;;;11.90;99.90;;;;;;5012788;28;20557;-75
2021/10/08 09:08:13;;;;;;;20.08;8.55;;;12.10;99.90;;;;;;5014133;28;20430;-75
2021/10/08 09:10:46;;;;;;;21.42;8.82;;;12.20;99.90;;;;;;5012687;28;20022;-75
2021/10/08 09:13:17;;;;;;;19.50;8.95;;;12.30;99.90;;;;;;5014912;28;20076;-75
2021/10/08 09:16:09;;;;;;;17.92;7.95;;;12.40;99.90;;;;;;5012554;28;20060;-75
2021/10/08 09:18:37;;;;;;;19.02;8.23;;;12.60;99.90;;;;;;5013062;28;20049;-75
2021/10/08 09:21:13;;;;;;;25.33;8.48;;;12.80;99.90;;;;;;5012726;28;20022;-75
2021/10/08 09:23:46;;;;;;;23.10;8.93;;;12.90;99.90;;;;;;5012752;28;20515;-75
2021/10/08 09:26:18;;;;;;;19.92;8.57;;;13.10;99.90;;;;;;5014224;28;20022;-75
2021/10/08 09:28:57;;;;;;;21.55;9.10;;;13.20;99.90;;;;;;5013757;28;20435;-75
2021/10/08 09:31:37;;;;;;;19.05;8.05;;;13.30;99.90;;;;;;5013641;28;20479;-75
2021/10/08 09:34:19;;;;;;;26.08;8.73;;;13.50;99.90;;;;;;5013303;28;20061;-75
2021/10/08 09:36:50;;;;;;;25.67;9.60;;;13.70;99.90;;;;;;5013845;28;20026;-75
2021/10/08 09:39:29;;;;;;;26.38;10.20;;;13.80;99.90;;;;;;4999452;28;20053;-75
2021/10/08 09:42:03;;;;;;;24.75;9.80;;;13.90;99.90;;;;;;4994366;28;20049;-75
2021/10/08 09:44:32;;;;;;;20.52;8.48;;;14.00;99.90;;;;;;4994676;28;20034;-75
2021/10/08 09:47:17;;;;;;;26.35;10.73;;;14.20;99.90;;;;;;4993759;28;20033;-75
2021/10/08 09:49:46;;;;;;;31.83;10.68;;;14.30;99.90;;;;;;4993916;28;20065;-75
2021/10/08 09:52:38;;;;;;;25.15;10.65;;;14.50;99.90;;;;;;4993974;28;20023;-75
2021/10/08 09:55:11;;;;;;;26.33;10.40;;;14.70;99.90;;;;;;4993982;28;20054;-75
2021/10/08 09:57:49;;;;;;;28.08;10.27;;;14.80;99.90;;;;;;4992776;28;20026;-75
2021/10/08 10:00:33;;;;;;;27.30;9.88;;;14.90;99.90;;;;;;4993657;28;20029;-75
2021/10/08 10:03:03;;;;;;;23.73;9.00;;;15.10;99.90;;;;;;4992668;28;20038;-75
2021/10/08 10:05:29;;;;;;;22.17;8.85;;;15.30;99.90;;;;;;5004842;28;20041;-77
2021/10/08 10:07:56;;;;;;;24.23;8.88;;;15.40;99.90;;;;;;5013256;28;20026;-77
2021/10/08 10:10:22;;;;;;;21.33;9.00;;;15.50;99.90;;;;;;5013673;28;20032;-75
2021/10/08 10:12:49;;;;;;;22.63;8.75;;;15.70;99.90;;;;;;5016336;28;20028;-75
2021/10/08 10:15:15;;;;;;;18.90;8.38;;;15.80;99.90;;;;;;5015758;28;20483;-75
2021/10/08 10:17:41;;;;;;;20.23;7.70;;;15.80;99.90;;;;;;5015567;28;20121;-78
2021/10/08 10:20:10;;;;;;;21.95;9.40;;;15.90;99.90;;;;;;5016678;28;20065;-75
2021/10/08 10:22:36;;;;;;;18.38;8.00;;;16.00;99.90;;;;;;5015464;28;20018;-75
2021/10/08 10:25:03;;;;;;;18.10;7.82;;;16.10;99.90;;;;;;5016476;28;20064;-76
2021/10/08 10:27:29;;;;;;;20.20;8.90;;;16.20;99.90;;;;;;5016366;28;20030;-76
2021/10/08 10:29:56;;;;;;;17.38;7.00;;;16.30;99.90;;;;;;5015111;28;20617;-75
2021/10/08 10:32:22;;;;;;;18.17;7.55;;;16.40;99.90;;;;;;5016419;28;20110;-75
2021/10/08 10:34:48;;;;;;;16.27;6.70;;;16.50;99.90;;;;;;5015176;28;20018;-76
2021/10/08 10:37:42;;;;;;;17.20;6.28;;;16.60;99.90;;;;;;5015184;28;20026;-76
2021/10/08 10:40:19;;;;;;;15.40;6.22;;;16.70;99.90;;;;;;5015338;28;20021;-76
2021/10/08 10:42:46;;;;;;;12.85;6.18;;;16.80;99.90;;;;;;5015129;28;20119;-77
2021/10/08 10:45:27;;;;;;;13.85;5.10;;;16.90;99.90;;;;;;5015244;28;20030;-79
2021/10/08 10:48:19;;;;;;;13.10;5.90;;;17.00;99.90;;;;;;5016180;28;20053;-78
2021/10/08 10:51:15;;;;;;;13.23;5.50;;;17.00;99.90;;;;;;5016412;28;20022;-76
2021/10/08 10:54:07;;;;;;;11.40;4.35;;;17.20;99.90;;;;;;5015885;28;20053;-76
2021/10/08 10:56:42;;;;;;;11.20;4.60;;;17.30;99.90;;;;;;5012154;28;20034;-76
2021/10/08 10:59:26;;;;;;;9.02;4.25;;;17.40;99.90;;;;;;5014440;28;20513;-76
2021/10/08 11:04:29;;;;;;;8.88;3.72;;;17.70;99.90;;;;;;5015729;28;20048;-78
2021/10/08 11:07:12;;;;;;;10.93;4.30;;;17.70;99.90;;;;;;5013986;28;20407;-77
2021/10/08 11:09:39;;;;;;;7.95;3.28;;;17.80;99.90;;;;;;5016129;28;20097;-77
2021/10/08 11:12:38;;;;;;;15.40;4.55;;;18.00;99.90;;;;;;5015793;28;20026;-77
2021/10/08 11:15:19;;;;;;;10.18;4.53;;;18.10;99.90;;;;;;5015545;28;20113;-77
2021/10/08 11:17:49;;;;;;;10.80;4.38;;;18.10;99.90;;;;;;5014444;28;20033;-77
2021/10/08 11:20:36;;;;;;;7.68;3.13;;;18.30;99.90;;;;;;5014561;28;20041;-77
2021/10/08 11:23:04;;;;;;;11.40;4.68;;;18.40;99.90;;;;;;5014234;28;20026;-77
2021/10/08 11:25:32;;;;;;;9.83;4.37;;;18.50;99.90;;;;;;5015646;28;20026;-78
2021/10/08 11:27:58;;;;;;;11.65;4.38;;;18.60;99.90;;;;;;5015630;28;20264;-78
2021/10/08 11:30:26;;;;;;;9.65;4.38;;;18.60;99.90;;;;;;5015654;28;20364;-78
2021/10/08 11:32:54;;;;;;;10.82;4.28;;;18.90;99.90;;;;;;5014758;28;20022;-78
2021/10/08 11:35:34;;;;;;;10.07;3.95;;;19.00;99.90;;;;;;5014328;28;20022;-77
2021/10/08 11:38:02;;;;;;;8.77;3.40;;;19.10;99.90;;;;;;5015713;28;20022;-78
2021/10/08 11:40:42;;;;;;;8.63;3.92;;;19.20;99.90;;;;;;5015803;28;20022;-78
2021/10/08 11:43:36;;;;;;;8.13;3.50;;;19.40;99.90;;;;;;5014594;28;20033;-78
2021/10/08 11:46:20;;;;;;;10.25;3.88;;;19.50;99.90;;;;;;5014188;28;20168;-78
2021/10/08 11:48:52;;;;;;;13.75;4.38;;;19.60;99.90;;;;;;5015852;28;20018;-78
2021/10/08 11:51:17;;;;;;;8.25;3.75;;;19.70;99.90;;;;;;5014260;28;20018;-78
2021/10/08 11:54:00;;;;;;;11.38;4.43;;;19.80;99.90;;;;;;5014039;28;20375;-78
2021/10/08 11:56:28;;;;;;;8.32;4.28;;;19.80;99.90;;;;;;5015355;28;20088;-76
2021/10/08 11:59:09;;;;;;;8.07;3.75;;;19.90;99.90;;;;;;5013651;28;20045;-76
2021/10/08 12:01:36;;;;;;;9.50;4.35;;;20.00;99.90;;;;;;5014857;28;20022;-76
2021/10/08 12:04:02;;;;;;;7.20;3.75;;;20.10;99.90;;;;;;5014739;28;20065;-76
2021/10/08 12:06:29;;;;;;;10.18;4.28;;;20.30;99.90;;;;;;5013821;28;20053;-76
2021/10/08 12:08:57;;;;;;;8.75;4.45;;;20.50;99.90;;;;;;5013616;28;20021;-76
2021/10/08 12:11:26;;;;;;;9.10;4.70;;;20.60;99.40;;;;;;5013346;28;20446;-76
2021/10/08 12:13:58;;;;;;;8.13;4.05;;;20.80;99.30;;;;;;5014799;28;20018;-76
2021/10/08 12:16:41;;;;;;;10.25;4.32;;;21.00;97.90;;;;;;5013270;28;20399;-76
2021/10/08 12:19:09;;;;;;;7.85;3.08;;;21.30;98.90;;;;;;5014966;28;20033;-77
2021/10/08 12:21:42;;;;;;;8.63;4.10;;;21.50;96.40;;;;;;5013405;28;20502;-77
2021/10/08 12:24:11;;;;;;;7.68;3.90;;;21.80;95.80;;;;;;5014536;28;20022;-77
2021/10/08 12:26:42;;;;;;;9.05;3.53;;;22.00;93.90;;;;;;5013353;28;20041;-78
2021/10/08 12:29:11;;;;;;;9.18;3.35;;;22.10;90.50;;;;;;5013336;28;20021;-78
2021/10/08 12:32:03;;;;;;;9.00;3.95;;;22.20;92.10;;;;;;5014561;28;20395;-78
2021/10/08 12:34:45;;;;;;;6.68;3.13;;;22.30;90.10;;;;;;5012756;28;20018;-78
2021/10/08 12:37:16;;;;;;;5.55;2.45;;;22.20;83.30;;;;;;5012800;28;20026;-78
2021/10/08 12:40:12;;;;;;;6.90;2.92;;;21.70;85.70;;;;;;5014230;28;20391;-78
2021/10/08 12:42:45;;;;;;;6.38;2.88;;;21.30;85.40;;;;;;5014455;28;20044;-78
2021/10/08 12:45:23;;;;;;;8.25;3.55;;;20.80;87.90;;;;;;5013008;28;20022;-78
2021/10/08 12:47:50;;;;;;;6.95;3.30;;;20.50;90.00;;;;;;5014201;28;20030;-78
2021/10/08 12:50:36;;;;;;;9.00;3.78;;;20.20;90.60;;;;;;5013963;28;20022;-78
2021/10/08 12:53:02;;;;;;;5.78;2.85;;;19.80;92.00;;;;;;5014547;28;20029;-78
2021/10/08 12:55:30;;;;;;;6.43;2.90;;;19.80;95.10;;;;;;5014102;28;20018;-78
2021/10/08 12:58:13;;;;;;;6.03;2.90;;;20.10;95.00;;;;;;5012610;28;20114;-78
2021/10/08 13:00:41;;;;;;;5.80;2.25;;;20.20;92.20;;;;;;5013924;28;20025;-78